Time;durP1;ratioP1;P1;durP2;ratioP2;P2;SDS_P1;SDS_P2;PMS_P1;PMS_P2;Temp;Humidity;BMP_temperature;BMP_pressure;BME280_temperature;BME280_humidity;BME280_pressure;Samples;Min_cycle;Max_cycle;Signal;HPM_P1;HPM_P2
2021/07/28 00:01:30;;;;;;;8.93;5.57;;;17.50;82.40;;;;;;4990063;28;20046;-89
2021/07/28 00:03:57;;;;;;;10.95;6.22;;;17.50;82.40;;;;;;4989144;28;20472;-88
2021/07/28 00:06:28;;;;;;;13.90;5.97;;;17.50;82.40;;;;;;4992043;28;20534;-90
2021/07/28 00:08:55;;;;;;;10.55;5.72;;;17.50;82.30;;;;;;4992968;28;21101;-88
2021/07/28 00:11:21;;;;;;;12.43;6.10;;;17.50;82.30;;;;;;4994656;28;20073;-90
2021/07/28 00:13:48;;;;;;;8.38;5.05;;;17.50;82.30;;;;;;4992605;28;20046;-87
2021/07/28 00:16:16;;;;;;;9.05;5.47;;;17.50;82.30;;;;;;4992240;28;20458;-90
2021/07/28 00:19:07;;;;;;;12.68;5.25;;;17.40;82.30;;;;;;4992394;28;20065;-89
2021/07/28 00:24:19;;;;;;;10.00;5.25;;;17.40;82.10;;;;;;4978832;28;20491;-89
2021/07/28 00:26:46;;;;;;;11.85;5.03;;;17.40;82.10;;;;;;4994609;28;20057;-88
2021/07/28 00:29:13;;;;;;;10.02;5.60;;;17.40;82.00;;;;;;4993417;28;20050;-89
2021/07/28 00:31:41;;;;;;;7.82;6.10;;;17.40;82.00;;;;;;4992411;28;20046;-89
2021/07/28 00:34:07;;;;;;;12.65;5.60;;;17.40;81.90;;;;;;4994999;28;20058;-89
2021/07/28 00:36:34;;;;;;;10.27;5.82;;;17.40;81.90;;;;;;4992294;28;20050;-88
2021/07/28 00:39:01;;;;;;;14.80;5.97;;;17.30;81.90;;;;;;4993649;28;20038;-90
2021/07/28 00:41:28;;;;;;;9.35;5.78;;;17.30;81.90;;;;;;4995419;28;20046;-89
2021/07/28 00:43:55;;;;;;;8.98;4.78;;;17.30;81.80;;;;;;4991788;28;20046;-89
2021/07/28 00:46:22;;;;;;;10.38;5.75;;;17.20;81.80;;;;;;4991952;28;20521;-90
2021/07/28 00:48:49;;;;;;;7.60;4.30;;;17.20;81.80;;;;;;4991964;28;20046;-89
2021/07/28 00:51:16;;;;;;;12.57;5.38;;;17.20;81.80;;;;;;4992013;28;20050;-89
2021/07/28 00:53:43;;;;;;;13.73;5.60;;;17.20;81.80;;;;;;4994280;28;20050;-90
2021/07/28 00:56:11;;;;;;;11.18;5.25;;;17.20;81.80;;;;;;4992873;28;20054;-90
2021/07/28 00:58:40;;;;;;;8.75;5.05;;;17.10;81.80;;;;;;4991215;28;20054;-90
2021/07/28 01:01:07;;;;;;;18.95;5.22;;;17.10;81.70;;;;;;4991685;28;20550;-90
2021/07/28 01:03:35;;;;;;;9.68;4.88;;;17.00;81.80;;;;;;4991891;28;20078;-89
2021/07/28 01:06:02;;;;;;;12.82;4.55;;;17.00;81.80;;;;;;4992379;28;22365;-90
2021/07/28 01:08:29;;;;;;;10.85;5.05;;;16.90;81.90;;;;;;4994584;28;20257;-90
2021/07/28 01:10:57;;;;;;;13.50;5.10;;;16.90;81.90;;;;;;4991724;28;20054;-90
2021/07/28 01:13:28;;;;;;;15.00;5.07;;;16.90;81.90;;;;;;4993992;28;20085;-90
2021/07/28 01:16:18;;;;;;;12.82;4.22;;;16.90;82.00;;;;;;4991556;28;20050;-89
2021/07/28 01:18:45;;;;;;;11.18;4.90;;;16.80;82.00;;;;;;4992664;28;20426;-87
2021/07/28 01:21:13;;;;;;;7.10;4.68;;;16.80;82.10;;;;;;4991352;28;20047;-89
2021/07/28 01:23:42;;;;;;;17.60;4.90;;;16.80;82.10;;;;;;4994073;28;20055;-89
2021/07/28 01:26:09;;;;;;;8.80;4.65;;;16.80;82.10;;;;;;4993600;28;20423;-89
2021/07/28 01:28:36;;;;;;;13.93;5.00;;;16.80;82.10;;;;;;4990778;28;20046;-89
2021/07/28 01:31:08;;;;;;;12.00;4.75;;;16.70;82.10;;;;;;4991186;28;20403;-90
2021/07/28 01:33:37;;;;;;;14.80;4.50;;;16.70;82.20;;;;;;4991299;28;20423;-90
2021/07/28 01:36:05;;;;;;;11.27;4.38;;;16.70;82.20;;;;;;4975935;28;20039;-88
2021/07/28 01:38:32;;;;;;;10.85;4.25;;;16.60;82.10;;;;;;4990220;28;20046;-88
2021/07/28 01:41:02;;;;;;;10.88;4.45;;;16.60;82.10;;;;;;4991128;28;20545;-90
2021/07/28 01:43:30;;;;;;;8.95;4.55;;;16.60;82.00;;;;;;4989529;28;20499;-90
2021/07/28 01:45:58;;;;;;;18.58;4.72;;;16.60;82.00;;;;;;4990940;28;20050;-91
2021/07/28 01:48:25;;;;;;;14.55;4.45;;;16.50;82.00;;;;;;4990856;28;20047;-87
2021/07/28 01:50:54;;;;;;;9.75;4.18;;;16.50;82.00;;;;;;4993720;28;20054;-92
2021/07/28 01:53:22;;;;;;;14.25;4.05;;;16.40;82.00;;;;;;4994203;28;20499;-90
2021/07/28 01:55:51;;;;;;;8.55;4.10;;;16.40;82.00;;;;;;4990749;28;20038;-90
2021/07/28 01:58:19;;;;;;;13.35;4.35;;;16.40;82.00;;;;;;4991720;28;20054;-91
2021/07/28 02:00:47;;;;;;;12.57;4.28;;;16.40;82.00;;;;;;4990748;28;20042;-90
2021/07/28 02:03:14;;;;;;;15.52;3.88;;;16.30;82.00;;;;;;4990795;28;20047;-90
2021/07/28 02:05:43;;;;;;;14.80;4.30;;;16.40;82.00;;;;;;4993357;28;20054;-92
2021/07/28 02:08:12;;;;;;;8.63;4.05;;;16.30;81.90;;;;;;4993359;28;20054;-91
2021/07/28 02:10:46;;;;;;;17.33;4.03;;;16.30;81.90;;;;;;4990773;28;20042;-91
2021/07/28 02:13:17;;;;;;;9.35;4.00;;;16.30;81.80;;;;;;4990632;28;20050;-91
2021/07/28 02:15:45;;;;;;;9.88;3.85;;;16.20;81.80;;;;;;4990433;28;20049;-90
2021/07/28 02:18:12;;;;;;;10.43;4.00;;;16.20;81.70;;;;;;4990652;28;20077;-90
2021/07/28 02:20:39;;;;;;;11.02;4.30;;;16.20;81.70;;;;;;4993171;28;20627;-91
2021/07/28 02:23:07;;;;;;;9.35;3.35;;;16.20;81.70;;;;;;4991211;28;20108;-88
2021/07/28 02:25:34;;;;;;;13.70;3.70;;;16.10;81.70;;;;;;4990127;28;20046;-89
2021/07/28 02:28:01;;;;;;;15.15;3.60;;;16.10;81.60;;;;;;4991682;28;20043;-89
2021/07/28 02:30:28;;;;;;;10.20;4.05;;;16.10;81.60;;;;;;4993067;28;20043;-90
2021/07/28 02:32:55;;;;;;;8.55;3.72;;;16.00;81.60;;;;;;4991980;28;20522;-91
2021/07/28 02:35:22;;;;;;;10.38;4.18;;;16.00;81.60;;;;;;4992332;28;20046;-91
2021/07/28 02:37:49;;;;;;;12.10;4.00;;;16.00;81.60;;;;;;4991495;28;20046;-91
2021/07/28 02:40:19;;;;;;;16.65;4.05;;;16.00;81.50;;;;;;4989858;28;20046;-92
2021/07/28 02:42:46;;;;;;;10.52;3.40;;;15.90;81.50;;;;;;4989972;28;20047;-90
2021/07/28 02:45:14;;;;;;;11.45;3.63;;;16.00;81.50;;;;;;4990324;28;20047;-92
2021/07/28 02:47:41;;;;;;;7.35;3.67;;;15.90;81.40;;;;;;4992722;28;20051;-91
2021/07/28 02:50:08;;;;;;;14.43;4.05;;;15.90;81.40;;;;;;4992323;28;20495;-91
2021/07/28 02:52:36;;;;;;;16.98;3.53;;;15.90;81.30;;;;;;4990080;28;20046;-90
2021/07/28 02:55:07;;;;;;;13.63;4.07;;;15.90;81.30;;;;;;4989928;28;20078;-90
2021/07/28 02:57:35;;;;;;;12.93;4.20;;;15.90;81.30;;;;;;4989968;28;20046;-91
2021/07/28 03:00:07;;;;;;;14.43;4.10;;;15.90;81.40;;;;;;4990519;28;20097;-90
2021/07/28 03:02:35;;;;;;;11.35;4.00;;;15.90;81.30;;;;;;4993256;28;20060;-90
2021/07/28 03:05:03;;;;;;;13.15;3.92;;;15.80;81.40;;;;;;4991846;28;20065;-91
2021/07/28 03:07:30;;;;;;;16.77;4.28;;;15.80;81.40;;;;;;4991526;28;20046;-90
2021/07/28 03:09:57;;;;;;;17.48;4.63;;;15.80;81.50;;;;;;4992458;28;20054;-90
2021/07/28 03:12:24;;;;;;;20.55;4.88;;;15.70;81.50;;;;;;4989305;28;20047;-91
2021/07/28 03:14:54;;;;;;;15.77;5.03;;;15.70;81.60;;;;;;4991555;28;20050;-89
2021/07/28 03:17:21;;;;;;;16.70;5.55;;;15.70;81.80;;;;;;4993265;28;20415;-90
2021/07/28 03:19:48;;;;;;;15.20;5.00;;;15.60;81.90;;;;;;4989732;28;20043;-90
2021/07/28 03:22:15;;;;;;;15.38;4.20;;;15.60;81.90;;;;;;4990030;28;20124;-90
2021/07/28 03:24:42;;;;;;;11.63;4.63;;;15.60;82.00;;;;;;4989748;28;20050;-91
2021/07/28 03:27:09;;;;;;;19.75;5.03;;;15.60;82.20;;;;;;4990194;28;20114;-91
2021/07/28 03:29:36;;;;;;;14.57;5.35;;;15.50;82.20;;;;;;4993283;28;20054;-90
2021/07/28 03:32:03;;;;;;;11.25;4.43;;;15.50;82.30;;;;;;4989236;28;20046;-90
2021/07/28 03:34:30;;;;;;;15.90;5.80;;;15.50;82.40;;;;;;4989843;28;20503;-90
2021/07/28 03:36:57;;;;;;;14.90;4.80;;;15.40;82.40;;;;;;4988885;28;20054;-91
2021/07/28 03:39:24;;;;;;;17.00;5.40;;;15.40;82.50;;;;;;4989776;28;20050;-90
2021/07/28 03:41:51;;;;;;;15.23;4.88;;;15.40;82.50;;;;;;4995637;28;20405;-90
2021/07/28 03:44:18;;;;;;;22.13;5.90;;;15.40;82.60;;;;;;4993922;28;20058;-93
2021/07/28 03:46:45;;;;;;;17.45;4.93;;;15.40;82.60;;;;;;4993577;28;20046;-92
2021/07/28 03:49:11;;;;;;;12.43;4.75;;;15.40;82.50;;;;;;4996535;28;20045;-91
2021/07/28 03:51:38;;;;;;;22.20;5.43;;;15.40;82.50;;;;;;4993773;28;20074;-91
2021/07/28 03:54:05;;;;;;;15.82;4.80;;;15.40;82.50;;;;;;4994691;28;20048;-90
2021/07/28 03:56:32;;;;;;;15.48;5.05;;;15.40;82.50;;;;;;4992858;28;20046;-93
2021/07/28 03:58:59;;;;;;;19.13;5.18;;;15.40;82.50;;;;;;4993453;28;20058;-89
2021/07/28 04:01:26;;;;;;;25.85;5.18;;;15.30;82.60;;;;;;4993115;28;20109;-89
2021/07/28 04:03:54;;;;;;;18.23;4.97;;;15.40;82.60;;;;;;4993175;28;20046;-91
2021/07/28 04:06:21;;;;;;;15.30;4.60;;;15.30;82.60;;;;;;4994928;28;20517;-93
2021/07/28 04:08:48;;;;;;;12.25;5.30;;;15.30;82.70;;;;;;4995008;28;20529;-91
2021/07/28 04:11:14;;;;;;;14.70;5.18;;;15.30;82.70;;;;;;4993010;28;20085;-90
2021/07/28 04:13:42;;;;;;;15.52;4.75;;;15.30;82.70;;;;;;4992798;28;20042;-91
2021/07/28 04:16:09;;;;;;;23.33;5.28;;;15.30;82.70;;;;;;4992739;28;20510;-90
2021/07/28 04:18:37;;;;;;;19.42;4.90;;;15.30;82.70;;;;;;4992806;28;20042;-93
2021/07/28 04:21:03;;;;;;;13.73;5.00;;;15.20;82.70;;;;;;4977995;28;20046;-90
2021/07/28 04:23:30;;;;;;;13.60;4.80;;;15.30;82.70;;;;;;4995619;28;20411;-91
2021/07/28 04:26:00;;;;;;;17.23;5.70;;;15.20;82.70;;;;;;4992748;28;20050;-91
2021/07/28 04:28:27;;;;;;;13.65;4.55;;;15.20;82.70;;;;;;4994516;28;20081;-90
2021/07/28 04:30:54;;;;;;;19.42;5.10;;;15.20;82.70;;;;;;4992880;28;20050;-90
2021/07/28 04:33:21;;;;;;;21.60;5.30;;;15.20;82.70;;;;;;4993314;28;20123;-91
2021/07/28 04:35:48;;;;;;;14.85;4.78;;;15.20;82.70;;;;;;4994931;28;20046;-90
2021/07/28 04:38:15;;;;;;;18.95;5.03;;;15.20;82.70;;;;;;4993501;28;20105;-90
2021/07/28 04:40:42;;;;;;;15.48;5.13;;;15.20;82.80;;;;;;4992666;28;20054;-91
2021/07/28 04:43:09;;;;;;;18.25;6.18;;;15.20;82.80;;;;;;4992420;28;20053;-91
2021/07/28 04:45:36;;;;;;;28.10;5.20;;;15.20;82.80;;;;;;4992528;28;20495;-90
2021/07/28 04:48:05;;;;;;;13.90;5.32;;;15.20;82.80;;;;;;4977483;28;20078;-91
2021/07/28 04:50:32;;;;;;;15.20;5.88;;;15.10;82.80;;;;;;4990909;28;20046;-90
2021/07/28 04:52:59;;;;;;;15.60;5.85;;;15.10;82.80;;;;;;4992442;28;20057;-90
2021/07/28 04:55:26;;;;;;;24.08;6.03;;;15.10;82.80;;;;;;4991173;28;20050;-89
2021/07/28 04:57:53;;;;;;;12.00;5.93;;;15.10;82.80;;;;;;4991938;28;20426;-91
2021/07/28 05:00:21;;;;;;;17.52;6.50;;;15.10;82.90;;;;;;4992323;28;20043;-92
2021/07/28 05:02:47;;;;;;;20.85;5.85;;;15.10;82.90;;;;;;4994429;28;20046;-90
2021/07/28 05:05:15;;;;;;;26.63;6.13;;;15.10;82.90;;;;;;4992952;28;20057;-88
2021/07/28 05:07:44;;;;;;;13.00;5.28;;;15.10;83.00;;;;;;4994736;28;20101;-90
2021/07/28 05:10:12;;;;;;;16.65;6.20;;;15.10;83.00;;;;;;4992107;28;20042;-93
2021/07/28 05:12:39;;;;;;;13.00;6.15;;;15.10;83.00;;;;;;4993577;28;20054;-88
2021/07/28 05:15:06;;;;;;;17.25;6.13;;;15.10;83.00;;;;;;4992643;28;20050;-89
2021/07/28 05:17:33;;;;;;;17.55;6.28;;;15.10;83.10;;;;;;4990721;28;20113;-88
2021/07/28 05:20:00;;;;;;;30.80;7.40;;;15.10;83.10;;;;;;4991218;28;20053;-90
2021/07/28 05:22:27;;;;;;;17.67;6.25;;;15.10;83.20;;;;;;4991776;28;20046;-88
2021/07/28 05:24:55;;;;;;;18.35;6.13;;;15.10;83.20;;;;;;4991789;28;20042;-93
2021/07/28 05:27:22;;;;;;;27.38;6.88;;;15.20;83.20;;;;;;4991804;28;20051;-89
2021/07/28 05:29:49;;;;;;;31.95;7.93;;;15.10;83.20;;;;;;4993708;28;20046;-90
2021/07/28 05:32:16;;;;;;;17.30;6.68;;;15.20;83.30;;;;;;4992609;28;20108;-89
2021/07/28 05:34:43;;;;;;;18.17;5.80;;;15.20;83.30;;;;;;4990952;28;20388;-88
2021/07/28 05:37:10;;;;;;;16.42;7.05;;;15.20;83.30;;;;;;4991515;28;20092;-94
2021/07/28 05:39:37;;;;;;;24.77;7.43;;;15.20;83.20;;;;;;4991601;28;20053;-89
2021/07/28 05:42:04;;;;;;;21.25;6.68;;;15.20;83.30;;;;;;4976221;28;20046;-92
2021/07/28 05:44:32;;;;;;;14.45;7.43;;;15.20;83.30;;;;;;5009481;28;20054;-90
2021/07/28 05:46:59;;;;;;;19.48;7.18;;;15.20;83.40;;;;;;4994149;28;20141;-91
2021/07/28 05:49:26;;;;;;;20.40;7.97;;;15.20;83.40;;;;;;4990820;28;20047;-88
2021/07/28 05:51:53;;;;;;;13.27;7.00;;;15.30;83.40;;;;;;4992407;28;20051;-90
2021/07/28 05:54:20;;;;;;;16.67;6.85;;;15.30;83.40;;;;;;4991385;28;20047;-90
2021/07/28 05:56:48;;;;;;;18.83;6.80;;;15.30;83.40;;;;;;4993488;28;20490;-91
2021/07/28 05:59:15;;;;;;;20.58;7.07;;;15.30;83.40;;;;;;4991778;28;20057;-90
2021/07/28 06:01:42;;;;;;;14.48;6.85;;;15.30;83.30;;;;;;4990725;28;20101;-89
2021/07/28 06:04:10;;;;;;;20.77;7.25;;;15.30;83.40;;;;;;4989855;28;20117;-90
2021/07/28 06:06:36;;;;;;;27.98;6.95;;;15.30;83.40;;;;;;4990981;28;20038;-87
2021/07/28 06:09:03;;;;;;;19.90;7.20;;;15.40;83.50;;;;;;4991385;28;20058;-90
2021/07/28 06:11:30;;;;;;;18.58;8.30;;;15.40;83.40;;;;;;4994040;28;20050;-88
2021/07/28 06:13:57;;;;;;;17.25;7.20;;;15.40;83.40;;;;;;4991947;28;20050;-88
2021/07/28 06:16:24;;;;;;;16.38;6.80;;;15.40;83.40;;;;;;4990550;28;20133;-87
2021/07/28 06:18:51;;;;;;;19.50;7.07;;;15.40;83.40;;;;;;4989992;28;20053;-90
2021/07/28 06:21:18;;;;;;;18.67;6.53;;;15.50;83.40;;;;;;4990412;28;20455;-87
2021/07/28 06:23:47;;;;;;;19.50;6.72;;;15.50;83.40;;;;;;4993249;28;20053;-89
2021/07/28 06:26:14;;;;;;;17.30;8.02;;;15.50;83.40;;;;;;4993460;28;20046;-88
2021/07/28 06:28:41;;;;;;;18.25;6.78;;;15.60;83.30;;;;;;4990344;28;20073;-90
2021/07/28 06:31:08;;;;;;;21.20;6.78;;;15.60;83.20;;;;;;4991547;28;20423;-88
2021/07/28 06:33:35;;;;;;;24.10;7.80;;;15.60;83.10;;;;;;4990282;28;20545;-89
2021/07/28 06:36:02;;;;;;;18.08;6.85;;;15.70;83.10;;;;;;4990948;28;20042;-88
2021/07/28 06:38:29;;;;;;;17.63;7.10;;;15.70;83.10;;;;;;4992885;28;20046;-89
2021/07/28 06:40:56;;;;;;;22.73;7.10;;;15.70;83.10;;;;;;4990133;28;20053;-89
2021/07/28 06:43:23;;;;;;;12.40;7.18;;;15.80;83.10;;;;;;4989045;28;20046;-89
2021/07/28 06:45:49;;;;;;;18.52;7.18;;;15.80;83.20;;;;;;5003688;28;20053;-89
2021/07/28 06:48:17;;;;;;;19.25;7.95;;;15.80;83.00;;;;;;4988179;28;20145;-88
2021/07/28 06:50:44;;;;;;;18.48;7.72;;;15.90;83.00;;;;;;4991954;28;20047;-88
2021/07/28 06:53:10;;;;;;;15.88;7.13;;;15.90;83.00;;;;;;4990972;28;20046;-89
2021/07/28 06:55:38;;;;;;;14.60;7.05;;;15.90;82.90;;;;;;4990074;28;20050;-91
2021/07/28 06:58:05;;;;;;;13.70;6.82;;;15.90;82.80;;;;;;4989690;28;20050;-88
2021/07/28 07:00:33;;;;;;;15.55;6.55;;;15.90;82.80;;;;;;4989730;28;20049;-92
2021/07/28 07:03:00;;;;;;;14.48;6.88;;;16.00;82.70;;;;;;4992047;28;20050;-89
2021/07/28 07:05:28;;;;;;;24.45;6.90;;;16.00;82.60;;;;;;4993491;28;20531;-92
2021/07/28 07:07:55;;;;;;;14.27;6.00;;;16.10;82.50;;;;;;4991527;28;20372;-90
2021/07/28 07:10:22;;;;;;;15.60;6.10;;;16.10;82.40;;;;;;4990989;28;20073;-90
2021/07/28 07:12:51;;;;;;;11.40;5.82;;;16.10;82.20;;;;;;4989668;28;20054;-87
2021/07/28 07:15:18;;;;;;;14.02;6.15;;;16.20;82.30;;;;;;4992167;28;20043;-89
2021/07/28 07:17:45;;;;;;;11.63;6.18;;;16.20;82.20;;;;;;4995713;28;20042;-92
2021/07/28 07:20:13;;;;;;;12.00;5.85;;;16.30;82.00;;;;;;4993357;28;20042;-89
2021/07/28 07:22:40;;;;;;;12.23;6.80;;;16.30;82.00;;;;;;4994749;28;20050;-88
2021/07/28 07:25:10;;;;;;;16.13;6.05;;;16.40;81.90;;;;;;4994406;28;20042;-88
2021/07/28 07:27:40;;;;;;;13.18;6.22;;;16.40;81.80;;;;;;4995009;28;20054;-88
2021/07/28 07:30:08;;;;;;;14.20;5.82;;;16.40;81.60;;;;;;4993100;28;20057;-88
2021/07/28 07:32:35;;;;;;;16.98;5.70;;;16.60;81.60;;;;;;4993027;28;20096;-87
2021/07/28 07:35:02;;;;;;;13.10;5.72;;;16.60;81.30;;;;;;4995734;28;20050;-88
2021/07/28 07:37:30;;;;;;;13.65;5.53;;;16.60;81.10;;;;;;4992966;28;20096;-87
2021/07/28 07:39:57;;;;;;;10.63;5.35;;;16.70;81.10;;;;;;4992803;28;20433;-88
2021/07/28 07:42:24;;;;;;;10.35;5.40;;;16.80;81.10;;;;;;4994345;28;20454;-88
2021/07/28 07:44:56;;;;;;;9.30;5.15;;;16.90;81.00;;;;;;4994942;28;20054;-89
2021/07/28 07:47:23;;;;;;;12.23;4.72;;;16.90;80.40;;;;;;4995169;28;20062;-90
2021/07/28 07:49:50;;;;;;;11.38;4.80;;;16.90;80.10;;;;;;4998167;28;20046;-94
2021/07/28 07:52:17;;;;;;;13.05;4.75;;;17.00;79.70;;;;;;4995328;28;20430;-92
2021/07/28 07:54:44;;;;;;;13.82;4.53;;;17.10;79.70;;;;;;4995217;28;20057;-91
2021/07/28 07:57:11;;;;;;;10.20;4.53;;;17.20;79.60;;;;;;4992753;28;20055;-89
2021/07/28 07:59:40;;;;;;;11.90;4.63;;;17.30;79.40;;;;;;4995179;28;20060;-90
2021/07/28 08:02:07;;;;;;;14.63;4.22;;;17.40;79.20;;;;;;4993471;28;20054;-89
2021/07/28 08:04:34;;;;;;;15.05;4.57;;;17.40;79.00;;;;;;4992662;28;20050;-89
2021/07/28 08:07:02;;;;;;;11.65;4.45;;;17.40;79.10;;;;;;4992553;28;20129;-89
2021/07/28 08:09:29;;;;;;;9.55;4.55;;;17.50;79.10;;;;;;4992973;28;20101;-92
2021/07/28 08:11:56;;;;;;;14.45;4.38;;;17.60;79.10;;;;;;4994104;28;20055;-93
2021/07/28 08:14:23;;;;;;;11.63;4.18;;;17.80;78.70;;;;;;5009687;28;20125;-91
2021/07/28 08:16:50;;;;;;;15.30;4.80;;;17.90;78.20;;;;;;4992526;28;20054;-89
2021/07/28 08:19:17;;;;;;;10.88;4.25;;;17.90;77.50;;;;;;4992191;28;20049;-89
2021/07/28 08:21:47;;;;;;;7.93;3.75;;;18.00;77.30;;;;;;4995370;28;20046;-89
2021/07/28 08:24:15;;;;;;;17.38;4.15;;;18.00;77.10;;;;;;4992435;28;20518;-88
2021/07/28 08:26:42;;;;;;;8.50;4.07;;;18.10;77.10;;;;;;4994258;28;20049;-89
2021/07/28 08:29:11;;;;;;;11.25;3.88;;;18.30;76.70;;;;;;4994722;28;20046;-89
2021/07/28 08:31:41;;;;;;;14.63;3.97;;;18.40;76.90;;;;;;4991637;28;20418;-92
2021/07/28 08:34:08;;;;;;;10.48;3.72;;;18.40;76.90;;;;;;4992361;28;20054;-91
2021/07/28 08:36:35;;;;;;;9.70;3.70;;;18.60;76.80;;;;;;4993279;28;20042;-87
2021/07/28 08:39:02;;;;;;;10.85;3.40;;;18.60;75.50;;;;;;4992675;28;20043;-91
2021/07/28 08:41:34;;;;;;;12.48;3.20;;;18.70;75.10;;;;;;5010181;28;20048;-92
2021/07/28 08:44:01;;;;;;;13.40;3.42;;;18.80;74.70;;;;;;4994475;28;20422;-92
2021/07/28 08:46:28;;;;;;;7.10;3.08;;;18.90;74.90;;;;;;4993707;28;20049;-90
2021/07/28 08:48:55;;;;;;;12.68;3.40;;;18.90;75.10;;;;;;4990236;28;20388;-89
2021/07/28 08:51:27;;;;;;;7.25;3.33;;;18.90;74.80;;;;;;4992051;28;20515;-93
2021/07/28 08:53:54;;;;;;;9.27;3.17;;;18.90;74.20;;;;;;4993721;28;20518;-92
2021/07/28 08:56:24;;;;;;;7.05;2.90;;;18.90;74.40;;;;;;4993315;28;20042;-90
2021/07/28 08:58:51;;;;;;;8.68;2.90;;;18.90;74.40;;;;;;4991494;28;20144;-94
2021/07/28 09:01:18;;;;;;;10.40;3.15;;;18.90;74.40;;;;;;4994389;28;20427;-91
2021/07/28 09:03:46;;;;;;;10.63;3.22;;;19.00;72.90;;;;;;4992252;28;20046;-91
2021/07/28 09:06:29;;;;;;;10.70;3.10;;;19.10;73.30;;;;;;4992976;28;20050;-92
2021/07/28 09:09:01;;;;;;;8.35;3.08;;;19.10;73.40;;;;;;4991657;28;20058;-89
2021/07/28 09:11:28;;;;;;;10.65;2.92;;;19.10;73.60;;;;;;4994565;28;20050;-91
2021/07/28 09:13:56;;;;;;;6.95;3.40;;;19.10;73.50;;;;;;4991403;28;20439;-90
2021/07/28 09:16:23;;;;;;;13.18;3.50;;;19.10;73.60;;;;;;4991191;28;20042;-91
2021/07/28 09:18:52;;;;;;;7.88;3.03;;;19.10;73.60;;;;;;4991536;28;20059;-91
2021/07/28 09:21:28;;;;;;;8.30;2.80;;;19.10;73.90;;;;;;4993841;28;20043;-90
2021/07/28 09:24:13;;;;;;;12.23;3.22;;;19.20;73.50;;;;;;5007414;28;20088;-92
2021/07/28 09:26:47;;;;;;;8.68;3.10;;;19.20;72.90;;;;;;4996486;28;20074;-91
2021/07/28 09:29:17;;;;;;;8.27;3.40;;;19.20;72.60;;;;;;4994170;28;20062;-92
2021/07/28 09:31:53;;;;;;;7.35;2.97;;;19.20;72.50;;;;;;4992151;28;20046;-95
2021/07/28 09:34:24;;;;;;;8.93;3.45;;;19.20;72.00;;;;;;4991931;28;20043;-96
2021/07/28 09:36:56;;;;;;;11.73;3.40;;;19.20;72.30;;;;;;4993408;28;20522;-90
2021/07/28 09:39:26;;;;;;;14.23;3.70;;;19.20;71.50;;;;;;4995163;28;20043;-92
2021/07/28 09:41:56;;;;;;;9.38;3.20;;;19.30;71.50;;;;;;4994923;28;20078;-87
2021/07/28 09:44:32;;;;;;;12.75;3.70;;;19.30;72.10;;;;;;4993220;28;20061;-88
2021/07/28 09:47:16;;;;;;;12.77;3.28;;;19.30;71.60;;;;;;4992338;28;20100;-92
2021/07/28 09:49:43;;;;;;;;;;;19.30;71.30;;;;;;4991298;28;20531;-90
2021/07/28 09:52:25;;;;;;;10.35;3.28;;;19.30;71.40;;;;;;4992318;28;19932;-88
2021/07/28 09:54:55;;;;;;;11.43;4.28;;;19.40;71.50;;;;;;4990507;28;20794;-89
2021/07/28 09:57:24;;;;;;;9.23;3.58;;;19.40;71.30;;;;;;4990596;28;20054;-88
2021/07/28 10:00:06;;;;;;;6.85;3.38;;;19.40;70.30;;;;;;4993082;28;20054;-89
2021/07/28 10:02:34;;;;;;;6.90;3.67;;;19.40;70.70;;;;;;5025757;28;20519;-87
2021/07/28 10:05:04;;;;;;;9.00;3.75;;;19.30;70.90;;;;;;4993235;28;20073;-89
2021/07/28 10:07:33;;;;;;;10.25;4.07;;;19.30;71.40;;;;;;4990513;28;20042;-89
2021/07/28 10:10:09;;;;;;;11.00;3.97;;;19.30;71.90;;;;;;4990055;28;20109;-88
2021/07/28 10:12:38;;;;;;;5.85;3.45;;;19.20;72.10;;;;;;4990527;28;20061;-87
2021/07/28 10:15:08;;;;;;;11.52;4.07;;;19.20;72.00;;;;;;4975266;28;20514;-86
2021/07/28 10:17:45;;;;;;;6.85;3.47;;;19.30;72.50;;;;;;4989852;28;20081;-88
2021/07/28 10:20:13;;;;;;;7.57;3.83;;;19.30;72.80;;;;;;5024406;28;20050;-91
2021/07/28 10:22:42;;;;;;;8.07;3.47;;;19.40;72.30;;;;;;4991726;28;20053;-89
2021/07/28 10:25:15;;;;;;;11.77;4.05;;;19.50;71.90;;;;;;4991388;28;20105;-90
2021/07/28 10:27:50;;;;;;;8.23;3.70;;;19.60;71.10;;;;;;4992022;28;20038;-90
2021/07/28 10:30:20;;;;;;;10.00;4.07;;;19.60;70.80;;;;;;4990749;28;20039;-90
2021/07/28 10:32:48;;;;;;;11.65;3.42;;;19.70;70.70;;;;;;4991709;28;20054;-89
2021/07/28 10:35:27;;;;;;;11.43;3.80;;;19.70;70.60;;;;;;4991244;28;20053;-90
2021/07/28 10:37:59;;;;;;;13.30;3.85;;;19.70;71.10;;;;;;4991704;28;20426;-89
2021/07/28 10:40:26;;;;;;;12.32;3.70;;;19.80;71.20;;;;;;4989930;28;20061;-87
2021/07/28 10:42:53;;;;;;;8.02;3.70;;;19.80;70.30;;;;;;4990066;28;20066;-88
2021/07/28 10:45:20;;;;;;;11.73;3.53;;;19.90;70.30;;;;;;4991332;28;20050;-90
2021/07/28 10:47:51;;;;;;;6.22;3.47;;;19.90;70.30;;;;;;4990915;28;20053;-90
2021/07/28 10:50:28;;;;;;;7.38;3.10;;;19.90;69.80;;;;;;4989980;28;20054;-90
2021/07/28 10:53:00;;;;;;;8.05;3.20;;;19.90;69.90;;;;;;4989627;28;20053;-89
2021/07/28 10:55:31;;;;;;;9.27;3.80;;;19.90;70.10;;;;;;4989672;28;20518;-87
2021/07/28 10:58:10;;;;;;;9.70;3.45;;;19.90;70.20;;;;;;4991043;28;20058;-89
2021/07/28 11:00:45;;;;;;;10.38;2.97;;;19.90;70.30;;;;;;4991558;28;20053;-90
2021/07/28 11:03:17;;;;;;;7.75;2.97;;;19.90;70.40;;;;;;4975105;28;20061;-87
2021/07/28 11:05:50;;;;;;;14.43;2.75;;;20.00;70.30;;;;;;4992301;28;20081;-92
2021/07/28 11:08:21;;;;;;;8.63;3.28;;;20.00;68.70;;;;;;4988251;28;20524;-90
2021/07/28 11:10:48;;;;;;;7.55;2.58;;;20.10;68.80;;;;;;4990658;28;20058;-91
2021/07/28 11:13:26;;;;;;;7.43;2.40;;;20.10;68.80;;;;;;4988817;28;20046;-89
2021/07/28 11:15:57;;;;;;;11.35;2.67;;;20.10;68.70;;;;;;4991121;28;20046;-88
2021/07/28 11:18:37;;;;;;;11.18;3.13;;;20.00;68.20;;;;;;4990232;28;20057;-92
2021/07/28 11:21:17;;;;;;;6.55;2.50;;;20.00;68.70;;;;;;4975819;28;20046;-94
2021/07/28 11:24:01;;;;;;;9.30;2.42;;;19.90;68.60;;;;;;5005557;28;20046;-93
2021/07/28 11:26:41;;;;;;;20.67;2.40;;;19.90;68.10;;;;;;4993865;28;20065;-94
2021/07/28 11:29:10;;;;;;;8.70;2.13;;;19.80;68.40;;;;;;4994764;28;20054;-94
2021/07/28 11:31:42;;;;;;;6.82;2.42;;;19.70;68.40;;;;;;4991774;28;20054;-93
2021/07/28 11:34:13;;;;;;;6.55;2.60;;;19.70;68.50;;;;;;4989603;28;20050;-90
2021/07/28 11:36:42;;;;;;;7.93;2.35;;;19.70;68.90;;;;;;4990735;28;20053;-91
2021/07/28 11:39:13;;;;;;;6.50;2.20;;;19.70;69.30;;;;;;4991523;28;20043;-92
2021/07/28 11:41:42;;;;;;;9.27;2.58;;;19.70;69.50;;;;;;4991221;28;20055;-94
2021/07/28 11:44:09;;;;;;;8.25;2.17;;;19.60;69.80;;;;;;4991968;28;20514;-90
2021/07/28 11:46:36;;;;;;;10.45;2.35;;;19.70;69.80;;;;;;4991370;28;20403;-90
2021/07/28 11:49:05;;;;;;;5.00;2.33;;;19.70;69.80;;;;;;4989443;28;20050;-88
2021/07/28 11:51:38;;;;;;;8.57;2.42;;;19.70;69.90;;;;;;4990692;28;20125;-89
2021/07/28 11:54:12;;;;;;;6.20;2.88;;;19.70;69.70;;;;;;4974213;28;20049;-87
2021/07/28 11:56:52;;;;;;;8.80;2.60;;;19.70;69.90;;;;;;5003990;28;20411;-88
2021/07/28 11:59:24;;;;;;;7.03;2.72;;;19.70;70.20;;;;;;5008264;28;20058;-94
2021/07/28 12:01:56;;;;;;;9.10;2.90;;;19.80;70.60;;;;;;4999244;28;20038;-89
2021/07/28 12:04:27;;;;;;;8.20;2.70;;;19.90;71.10;;;;;;4993126;28;20585;-88
2021/07/28 12:07:09;;;;;;;10.60;3.33;;;20.00;71.20;;;;;;4994437;28;20145;-92
2021/07/28 12:09:36;;;;;;;7.97;2.50;;;20.20;70.40;;;;;;4994450;28;20415;-93
2021/07/28 12:12:04;;;;;;;10.00;2.60;;;20.30;70.00;;;;;;4993089;28;20051;-92
2021/07/28 12:14:40;;;;;;;4.57;2.13;;;20.40;69.90;;;;;;4996591;28;20136;-94
2021/07/28 12:17:08;;;;;;;8.23;2.72;;;20.50;69.90;;;;;;5013311;28;20062;-94
2021/07/28 12:19:40;;;;;;;6.70;2.15;;;20.60;69.90;;;;;;4994841;28;20051;-94
2021/07/28 12:22:09;;;;;;;5.57;2.17;;;20.70;69.70;;;;;;4996523;28;20621;-93
2021/07/28 12:24:38;;;;;;;10.82;2.40;;;20.70;68.70;;;;;;4994621;28;20132;-96
2021/07/28 12:27:34;;;;;;;6.78;2.25;;;20.70;68.10;;;;;;4993422;28;20057;-96
2021/07/28 12:30:09;;;;;;;8.60;2.63;;;20.70;68.00;;;;;;5026378;28;20057;-92
2021/07/28 12:32:39;;;;;;;5.65;2.33;;;20.70;68.20;;;;;;4977566;28;20046;-95
2021/07/28 12:35:21;;;;;;;8.45;2.70;;;20.60;68.30;;;;;;5011726;28;20053;-93
2021/07/28 12:38:23;;;;;;;9.32;2.55;;;20.60;68.70;;;;;;4993291;28;20050;-92
2021/07/28 12:40:54;;;;;;;7.90;2.45;;;20.70;68.50;;;;;;4992762;28;20057;-91
2021/07/28 12:43:23;;;;;;;9.30;2.40;;;20.70;68.40;;;;;;4993226;28;20069;-95
2021/07/28 12:45:58;;;;;;;6.80;2.65;;;20.70;68.40;;;;;;4992443;28;20050;-92
2021/07/28 12:48:26;;;;;;;13.18;2.55;;;20.70;68.30;;;;;;4992281;28;20049;-94
2021/07/28 12:50:55;;;;;;;9.95;2.65;;;20.80;68.10;;;;;;4994355;28;20070;-94
2021/07/28 12:53:27;;;;;;;10.02;2.45;;;20.80;68.30;;;;;;4995012;28;20054;-95